createdAt,value
2023-04-23T00:01:59.291Z,33.47
2023-04-23T00:04:28.996Z,34.20
2023-04-23T00:06:58.515Z,30.58
2023-04-23T00:09:29.973Z,36.70
2023-04-23T00:11:58.182Z,36.53
2023-04-23T00:14:26.012Z,37.65
2023-04-23T00:16:55.093Z,44.53
2023-04-23T00:19:23.018Z,33.50
2023-04-23T00:21:50.672Z,36.97
2023-04-23T00:24:18.104Z,35.45
2023-04-23T00:26:45.690Z,32.88
2023-04-23T00:29:13.087Z,35.28
2023-04-23T00:31:40.587Z,36.25
2023-04-23T00:34:08.129Z,34.92
2023-04-23T00:36:35.708Z,34.45
2023-04-23T00:39:03.708Z,40.40
2023-04-23T00:41:31.998Z,34.60
2023-04-23T00:44:00.828Z,33.58
2023-04-23T00:46:28.568Z,33.30
2023-04-23T00:48:56.764Z,39.00
2023-04-23T00:51:24.588Z,35.10
2023-04-23T00:53:52.423Z,35.88
2023-04-23T00:56:23.952Z,34.45
2023-04-23T00:58:55.412Z,32.03
2023-04-23T01:01:23.584Z,34.90
2023-04-23T01:03:54.391Z,36.65
2023-04-23T01:06:25.151Z,33.83
2023-04-23T01:08:52.707Z,36.13
2023-04-23T01:11:20.477Z,37.55
2023-04-23T01:13:47.923Z,41.10
2023-04-23T01:16:15.377Z,38.05
2023-04-23T01:18:43.414Z,38.42
2023-04-23T01:21:12.452Z,38.88
2023-04-23T01:23:40.292Z,34.97
2023-04-23T01:26:07.791Z,39.90
2023-04-23T01:28:37.215Z,44.03
2023-04-23T01:31:05.045Z,36.60
2023-04-23T01:33:34.093Z,36.85
2023-04-23T01:36:03.017Z,33.22
2023-04-23T01:38:33.810Z,41.80
2023-04-23T01:41:02.343Z,38.20
2023-04-23T01:43:31.168Z,36.75
2023-04-23T01:45:59.577Z,38.03
2023-04-23T01:48:28.830Z,35.05
2023-04-23T01:50:56.610Z,48.80
2023-04-23T01:53:24.058Z,41.13
2023-04-23T01:55:52.482Z,36.75
2023-04-23T01:58:19.916Z,36.85
2023-04-23T02:00:47.359Z,34.13
2023-04-23T02:03:15.673Z,36.28
2023-04-23T02:05:43.447Z,37.25
2023-04-23T02:08:11.362Z,49.10
2023-04-23T02:10:38.752Z,37.55
2023-04-23T02:13:06.185Z,34.67
2023-04-23T02:15:34.102Z,37.92
2023-04-23T02:18:01.659Z,41.20
2023-04-23T02:20:29.185Z,35.33
2023-04-23T02:22:56.825Z,39.08
2023-04-23T02:25:24.263Z,33.53
2023-04-23T02:27:51.813Z,40.08
2023-04-23T02:30:19.257Z,38.15
2023-04-23T02:32:46.717Z,37.42
2023-04-23T02:35:14.181Z,42.13
2023-04-23T02:37:41.621Z,34.65
2023-04-23T02:40:09.702Z,35.47
2023-04-23T02:42:37.390Z,43.70
2023-04-23T02:45:06.805Z,38.08
2023-04-23T02:47:34.448Z,37.83
2023-04-23T02:50:05.819Z,40.05
2023-04-23T02:52:34.004Z,34.97
2023-04-23T02:55:04.316Z,36.72
2023-04-23T02:57:31.903Z,35.80
2023-04-23T02:59:59.328Z,36.03
2023-04-23T03:02:35.963Z,35.15
2023-04-23T03:05:04.939Z,34.03
2023-04-23T03:07:32.390Z,34.28
2023-04-23T03:09:59.784Z,39.28
2023-04-23T03:12:27.238Z,39.70
2023-04-23T03:14:54.634Z,36.70
2023-04-23T03:17:23.869Z,37.13
2023-04-23T03:19:51.629Z,35.85
2023-04-23T03:22:19.277Z,39.53
2023-04-23T03:24:46.744Z,37.83
2023-04-23T03:27:15.371Z,38.63
2023-04-23T03:29:42.802Z,39.67
2023-04-23T03:32:10.470Z,40.45
2023-04-23T03:34:37.874Z,44.20
2023-04-23T03:37:05.263Z,41.05
2023-04-23T03:39:34.735Z,49.80
2023-04-23T03:42:02.415Z,43.17
2023-04-23T03:44:31.444Z,49.13
2023-04-23T03:46:59.275Z,41.85
2023-04-23T03:49:27.585Z,44.10
2023-04-23T03:51:56.335Z,40.00
2023-04-23T03:54:25.878Z,47.08
2023-04-23T03:57:20.879Z,43.33
2023-04-23T04:00:11.815Z,38.80
2023-04-23T04:02:43.263Z,43.55
2023-04-23T04:05:11.486Z,47.17
2023-04-23T04:07:39.654Z,47.50
2023-04-23T04:10:07.858Z,51.17
2023-04-23T04:12:36.322Z,47.40
2023-04-23T04:15:04.708Z,44.45
2023-04-23T04:17:32.161Z,48.45
2023-04-23T04:19:59.544Z,46.38
2023-04-23T04:22:27.051Z,42.55
2023-04-23T04:24:54.696Z,54.33
2023-04-23T04:27:22.164Z,48.30
2023-04-23T04:29:49.626Z,52.60
2023-04-23T04:32:17.054Z,49.42
2023-04-23T04:34:44.533Z,52.10
2023-04-23T04:37:12.983Z,44.60
2023-04-23T04:39:40.733Z,49.65
2023-04-23T04:42:08.230Z,47.63
2023-04-23T04:44:37.582Z,39.53
2023-04-23T04:47:08.044Z,45.72
2023-04-23T04:49:36.137Z,46.45
2023-04-23T04:52:03.714Z,43.90
2023-04-23T04:54:31.175Z,43.90
2023-04-23T04:56:58.542Z,46.13
2023-04-23T04:59:26.004Z,46.65
2023-04-23T05:01:53.663Z,41.03
2023-04-23T05:04:21.166Z,43.35
2023-04-23T05:06:48.683Z,46.13
2023-04-23T05:09:16.685Z,41.40
2023-04-23T05:11:44.111Z,41.63
2023-04-23T05:14:11.511Z,40.92
2023-04-23T05:16:39.038Z,40.67
2023-04-23T05:19:06.598Z,48.30
2023-04-23T05:21:34.383Z,41.95
2023-04-23T05:24:01.787Z,37.88
2023-04-23T05:26:29.515Z,43.28
2023-04-23T05:28:57.295Z,71.13
2023-04-23T05:31:24.863Z,46.30
2023-04-23T05:33:53.291Z,37.55
2023-04-23T05:36:21.004Z,35.72
2023-04-23T05:38:48.717Z,35.05
2023-04-23T05:41:16.448Z,39.97
2023-04-23T05:43:44.148Z,41.70
2023-04-23T05:46:11.594Z,37.58
2023-04-23T05:48:39.064Z,36.38
2023-04-23T05:51:06.635Z,39.63
2023-04-23T05:53:34.042Z,35.58
2023-04-23T05:56:01.435Z,36.47
2023-04-23T05:58:28.903Z,31.85
2023-04-23T06:00:57.645Z,37.00
2023-04-23T06:03:25.642Z,34.58
2023-04-23T06:05:53.189Z,40.95
2023-04-23T06:08:20.581Z,36.60
2023-04-23T06:10:48.119Z,35.22
2023-04-23T06:13:16.077Z,30.88
2023-04-23T06:15:43.590Z,36.33
2023-04-23T06:18:11.225Z,33.22
2023-04-23T06:20:38.653Z,33.58
2023-04-23T06:23:06.622Z,31.90
2023-04-23T06:25:34.044Z,32.63
2023-04-23T06:28:01.454Z,34.42
2023-04-23T06:30:34.226Z,32.22
2023-04-23T06:33:02.511Z,34.95
2023-04-23T06:35:31.185Z,35.72
2023-04-23T06:37:58.815Z,36.05
2023-04-23T06:40:26.269Z,39.15
2023-04-23T06:42:53.699Z,38.15
2023-04-23T06:45:37.516Z,37.25
2023-04-23T06:48:05.104Z,35.08
2023-04-23T06:50:32.545Z,36.85
2023-04-23T06:52:59.928Z,38.50
2023-04-23T06:55:29.028Z,36.00
2023-04-23T06:57:57.952Z,37.75
2023-04-23T07:00:25.641Z,34.78
2023-04-23T07:02:53.239Z,36.00
2023-04-23T07:05:20.742Z,34.85
2023-04-23T07:07:48.120Z,30.50
2023-04-23T07:10:17.821Z,37.15
2023-04-23T07:12:45.647Z,33.20
2023-04-23T07:15:13.114Z,33.83
2023-04-23T07:17:40.558Z,31.33
2023-04-23T07:20:08.931Z,31.30
2023-04-23T07:22:36.339Z,34.92
2023-04-23T07:25:05.398Z,29.02
2023-04-23T07:27:32.836Z,28.02
2023-04-23T07:30:01.929Z,25.50
2023-04-23T07:32:29.444Z,29.02
2023-04-23T07:34:57.311Z,24.65
2023-04-23T07:37:24.839Z,26.85
2023-04-23T07:39:53.863Z,29.05
2023-04-23T07:42:21.373Z,28.25
2023-04-23T07:44:48.854Z,30.50
2023-04-23T07:47:16.405Z,27.15
2023-04-23T07:49:44.105Z,27.98
2023-04-23T07:52:11.820Z,24.92
2023-04-23T07:54:39.571Z,24.98
2023-04-23T07:57:07.032Z,24.23
2023-04-23T07:59:34.640Z,21.50
2023-04-23T08:02:02.368Z,25.00
2023-04-23T08:04:29.970Z,21.80
2023-04-23T08:06:57.556Z,23.60
2023-04-23T08:09:26.129Z,24.83
2023-04-23T08:11:55.192Z,22.88
2023-04-23T08:14:22.599Z,24.48
2023-04-23T08:16:50.051Z,25.02
2023-04-23T08:19:17.796Z,23.80
2023-04-23T08:21:45.245Z,23.40
2023-04-23T08:24:12.693Z,23.30
2023-04-23T08:26:40.313Z,20.55
2023-04-23T08:29:09.062Z,22.98
2023-04-23T08:31:37.868Z,19.73
2023-04-23T08:34:05.277Z,19.58
2023-04-23T08:36:32.806Z,18.67
2023-04-23T08:39:00.933Z,21.25
2023-04-23T08:41:35.078Z,18.00
2023-04-23T08:44:05.447Z,18.77
2023-04-23T08:46:36.890Z,19.25
2023-04-23T08:49:07.732Z,21.15
2023-04-23T08:51:40.427Z,21.55
2023-04-23T08:54:13.776Z,19.38
2023-04-23T08:56:42.145Z,21.17
2023-04-23T08:59:09.956Z,20.10
2023-04-23T09:01:37.778Z,19.80
2023-04-23T09:04:05.429Z,20.48
2023-04-23T09:06:33.141Z,24.90
2023-04-23T09:09:01.173Z,20.35
2023-04-23T09:11:30.270Z,22.02
2023-04-23T09:13:58.084Z,24.20
2023-04-23T09:16:26.699Z,20.20
2023-04-23T09:18:57.365Z,22.05
2023-04-23T09:21:25.026Z,20.17
2023-04-23T09:23:52.615Z,20.80
2023-04-23T09:26:22.287Z,20.55
2023-04-23T09:28:51.382Z,20.05
2023-04-23T09:31:24.164Z,22.58
2023-04-23T09:33:53.828Z,24.10
2023-04-23T09:36:23.745Z,19.25
2023-04-23T09:38:56.232Z,18.08
2023-04-23T09:41:28.516Z,20.48
2023-04-23T09:43:57.886Z,21.08
2023-04-23T09:46:41.002Z,17.92
2023-04-23T09:49:11.781Z,18.90
2023-04-23T09:51:42.797Z,16.70
2023-04-23T09:54:21.859Z,17.70
2023-04-23T09:56:51.604Z,17.10
2023-04-23T09:59:46.920Z,18.63
2023-04-23T10:02:18.896Z,18.05
2023-04-23T10:04:52.317Z,20.55
2023-04-23T10:07:27.432Z,19.60
2023-04-23T10:09:56.071Z,19.13
2023-04-23T10:12:41.028Z,18.80
2023-04-23T10:15:15.117Z,17.33
2023-04-23T10:17:42.917Z,20.25
2023-04-23T10:20:12.636Z,17.38
2023-04-23T10:22:44.332Z,18.23
2023-04-23T10:25:15.730Z,15.23
2023-04-23T10:27:54.043Z,18.92
2023-04-23T10:30:23.221Z,15.27
2023-04-23T10:32:51.715Z,15.68
2023-04-23T10:35:19.492Z,11.57
2023-04-23T10:37:48.572Z,13.82
2023-04-23T10:40:22.166Z,10.75
2023-04-23T10:42:50.524Z,11.82
2023-04-23T10:45:24.610Z,12.15
2023-04-23T10:47:56.470Z,9.88
2023-04-23T10:50:35.832Z,10.70
2023-04-23T10:53:04.018Z,10.02
2023-04-23T10:55:33.143Z,10.32
2023-04-23T10:58:06.220Z,10.02
2023-04-23T11:00:43.459Z,9.68
2023-04-23T11:03:37.992Z,11.77
2023-04-23T11:06:07.241Z,11.07
2023-04-23T11:08:38.265Z,10.05
2023-04-23T11:11:09.672Z,11.63
2023-04-23T11:13:50.749Z,12.18
2023-04-23T11:16:22.313Z,10.23
2023-04-23T11:19:05.257Z,10.25
2023-04-23T11:22:06.198Z,10.15
2023-04-23T11:24:34.134Z,10.82
2023-04-23T11:27:02.797Z,10.18
2023-04-23T11:29:30.639Z,11.30
2023-04-23T11:32:02.942Z,10.88
2023-04-23T11:34:33.188Z,11.23
2023-04-23T11:37:02.449Z,9.48
2023-04-23T11:39:30.044Z,10.02
2023-04-23T11:41:59.497Z,10.73
2023-04-23T11:44:28.205Z,10.85
2023-04-23T11:46:58.390Z,8.52
2023-04-23T11:49:26.377Z,8.63
2023-04-23T11:51:55.016Z,9.50
2023-04-23T11:54:27.617Z,7.65
2023-04-23T11:56:55.972Z,12.18
2023-04-23T11:59:24.035Z,9.15
2023-04-23T12:02:00.772Z,10.35
2023-04-23T12:04:31.005Z,10.52
2023-04-23T12:06:59.485Z,13.35
2023-04-23T12:09:29.375Z,10.70
2023-04-23T12:12:01.145Z,10.88
2023-04-23T12:14:30.814Z,9.43
2023-04-23T12:17:08.870Z,11.50
2023-04-23T12:19:36.567Z,12.13
2023-04-23T12:22:04.673Z,12.07
2023-04-23T12:24:46.624Z,11.30
2023-04-23T12:27:16.745Z,14.30
2023-04-23T12:29:51.237Z,15.13
2023-04-23T12:32:22.970Z,13.27
2023-04-23T12:34:57.252Z,9.98
2023-04-23T12:37:27.029Z,14.75
2023-04-23T12:39:56.684Z,11.13
2023-04-23T12:42:27.827Z,10.13
2023-04-23T12:44:56.314Z,12.60
2023-04-23T12:47:26.434Z,10.48
2023-04-23T12:49:55.658Z,14.65
2023-04-23T12:52:24.727Z,10.07
2023-04-23T12:54:56.436Z,13.30
2023-04-23T12:57:25.330Z,13.05
2023-04-23T12:59:55.320Z,11.18
2023-04-23T13:02:24.827Z,17.02
2023-04-23T13:04:54.553Z,12.65
2023-04-23T13:07:25.692Z,16.15
2023-04-23T13:09:53.552Z,13.10
2023-04-23T13:12:21.178Z,13.45
2023-04-23T13:14:49.252Z,14.95
2023-04-23T13:17:16.917Z,17.95
2023-04-23T13:19:45.021Z,12.93
2023-04-23T13:22:12.636Z,12.85
2023-04-23T13:24:40.158Z,11.52
2023-04-23T13:27:08.101Z,12.40
2023-04-23T13:29:35.579Z,12.50
2023-04-23T13:32:03.925Z,9.77
2023-04-23T13:34:31.496Z,9.48
2023-04-23T13:36:59.033Z,8.23
2023-04-23T13:39:26.659Z,10.13
2023-04-23T13:42:09.155Z,9.75
2023-04-23T13:44:37.196Z,13.20
2023-04-23T13:47:04.935Z,8.95
2023-04-23T13:49:32.756Z,9.50
2023-04-23T13:52:04.434Z,10.35
2023-04-23T13:54:32.369Z,9.20
2023-04-23T13:57:01.055Z,10.13
2023-04-23T13:59:28.687Z,11.00
2023-04-23T14:01:56.257Z,14.65
2023-04-23T14:04:24.293Z,8.25
2023-04-23T14:06:52.079Z,11.23
2023-04-23T14:09:19.588Z,9.13
2023-04-23T14:11:47.025Z,9.75
2023-04-23T14:14:14.633Z,7.85
2023-04-23T14:16:42.117Z,12.52
2023-04-23T14:19:09.685Z,9.63
2023-04-23T14:21:37.510Z,9.38
2023-04-23T14:24:27.871Z,9.73
2023-04-23T14:26:55.517Z,9.43
2023-04-23T14:29:22.961Z,6.85
2023-04-23T14:31:51.117Z,6.85
2023-04-23T14:34:18.654Z,7.95
2023-04-23T14:36:49.411Z,7.28
2023-04-23T14:39:17.377Z,6.65
2023-04-23T14:41:45.593Z,9.23
2023-04-23T14:44:13.219Z,7.32
2023-04-23T14:46:40.972Z,9.75
2023-04-23T14:49:08.900Z,7.57
2023-04-23T14:51:37.518Z,8.25
2023-04-23T14:54:05.501Z,6.10
2023-04-23T14:56:33.375Z,6.00
2023-04-23T14:59:01.641Z,6.88
2023-04-23T15:01:31.464Z,6.85
2023-04-23T15:03:59.732Z,5.50
2023-04-23T15:06:27.676Z,9.20
2023-04-23T15:08:55.385Z,6.95
2023-04-23T15:11:23.006Z,7.07
2023-04-23T15:14:06.532Z,8.32
2023-04-23T15:16:48.329Z,6.57
2023-04-23T15:19:20.193Z,9.18
2023-04-23T15:21:48.602Z,11.60
2023-04-23T15:24:16.993Z,6.82
2023-04-23T15:26:45.981Z,6.93
2023-04-23T15:29:14.052Z,5.68
2023-04-23T15:31:42.280Z,6.32
2023-04-23T15:34:11.704Z,9.25
2023-04-23T15:36:39.405Z,6.88
2023-04-23T15:39:08.697Z,8.25
2023-04-23T15:41:39.454Z,7.55
2023-04-23T15:44:11.867Z,7.07
2023-04-23T15:46:40.063Z,6.57
2023-04-23T15:49:13.031Z,5.22
2023-04-23T15:51:40.997Z,5.22
2023-04-23T15:54:09.755Z,6.43
2023-04-23T15:56:39.160Z,5.68
2023-04-23T15:59:07.345Z,10.32
2023-04-23T16:01:37.425Z,8.43
2023-04-23T16:04:10.189Z,5.88
2023-04-23T16:06:39.162Z,7.72
2023-04-23T16:09:08.287Z,4.72
2023-04-23T16:11:37.759Z,6.15
2023-04-23T16:14:05.970Z,5.88
2023-04-23T16:16:33.454Z,6.38
2023-04-23T16:19:02.951Z,7.97
2023-04-23T16:21:32.201Z,5.70
2023-04-23T16:23:59.837Z,9.70
2023-04-23T16:26:29.090Z,6.45
2023-04-23T16:29:16.551Z,5.18
2023-04-23T16:31:44.996Z,6.80
2023-04-23T16:34:12.652Z,6.43
2023-04-23T16:36:40.110Z,8.65
2023-04-23T16:39:07.617Z,10.82
2023-04-23T16:41:35.130Z,8.20
2023-04-23T16:44:02.624Z,4.95
2023-04-23T16:46:31.333Z,6.78
2023-04-23T16:48:59.577Z,8.60
2023-04-23T16:51:28.801Z,9.77
2023-04-23T16:53:59.459Z,5.90
2023-04-23T16:56:27.400Z,9.00
2023-04-23T16:58:55.287Z,6.70
2023-04-23T17:01:22.832Z,8.88
2023-04-23T17:03:51.044Z,8.52
2023-04-23T17:06:32.781Z,7.93
2023-04-23T17:09:01.936Z,9.23
2023-04-23T17:11:30.447Z,12.48
2023-04-23T17:13:58.466Z,9.35
2023-04-23T17:16:29.096Z,8.48
2023-04-23T17:18:57.152Z,8.30
2023-04-23T17:21:25.919Z,7.57
2023-04-23T17:23:53.366Z,51.70
2023-04-23T17:26:20.867Z,13.60
2023-04-23T17:28:48.412Z,9.90
2023-04-23T17:31:16.333Z,10.35
2023-04-23T17:33:45.569Z,13.35
2023-04-23T17:36:13.151Z,13.38
2023-04-23T17:38:41.356Z,10.60
2023-04-23T17:41:08.807Z,16.42
2023-04-23T17:43:36.551Z,13.77
2023-04-23T17:46:04.382Z,18.70
2023-04-23T17:48:32.146Z,13.15
2023-04-23T17:50:59.704Z,14.65
2023-04-23T17:53:27.254Z,14.45
2023-04-23T17:55:59.427Z,13.27
2023-04-23T17:58:27.029Z,13.95
2023-04-23T18:00:54.986Z,15.65
2023-04-23T18:03:23.504Z,14.02
2023-04-23T18:05:51.564Z,17.23
2023-04-23T18:08:20.925Z,16.27
2023-04-23T18:10:48.513Z,16.50
2023-04-23T18:13:16.365Z,18.95
2023-04-23T18:15:45.839Z,15.35
2023-04-23T18:18:13.297Z,16.23
2023-04-23T18:20:40.928Z,16.52
2023-04-23T18:23:08.850Z,17.38
2023-04-23T18:25:36.836Z,13.65
2023-04-23T18:28:04.505Z,18.65
2023-04-23T18:30:32.003Z,18.00
2023-04-23T18:33:25.857Z,16.65
2023-04-23T18:35:59.291Z,16.83
2023-04-23T18:38:45.638Z,16.08
2023-04-23T18:41:13.141Z,16.95
2023-04-23T18:43:40.717Z,15.50
2023-04-23T18:46:08.339Z,14.88
2023-04-23T18:48:35.855Z,17.23
2023-04-23T18:51:33.299Z,16.33
2023-04-23T18:54:01.770Z,14.80
2023-04-23T18:56:29.328Z,15.02
2023-04-23T18:58:56.832Z,13.20
2023-04-23T19:01:28.110Z,13.45
2023-04-23T19:03:57.224Z,14.85
2023-04-23T19:06:25.053Z,13.75
2023-04-23T19:08:52.554Z,13.82
2023-04-23T19:11:20.307Z,14.07
2023-04-23T19:13:47.843Z,16.55
2023-04-23T19:16:18.217Z,12.73
2023-04-23T19:18:45.903Z,13.85
2023-04-23T19:21:13.446Z,18.23
2023-04-23T19:23:41.130Z,19.73
2023-04-23T19:26:09.475Z,14.13
2023-04-23T19:28:36.957Z,14.60
2023-04-23T19:31:04.775Z,16.70
2023-04-23T19:33:32.261Z,19.63
2023-04-23T19:35:59.741Z,14.50
2023-04-23T19:38:27.371Z,16.95
2023-04-23T19:40:55.042Z,12.90
2023-04-23T19:43:22.514Z,17.27
2023-04-23T19:45:49.954Z,15.10
2023-04-23T19:48:17.411Z,14.52
2023-04-23T19:50:44.956Z,15.10
2023-04-23T19:53:12.471Z,13.80
2023-04-23T19:55:39.957Z,16.63
2023-04-23T19:58:07.359Z,16.45
2023-04-23T20:00:40.027Z,14.25
2023-04-23T20:03:08.759Z,15.32
2023-04-23T20:05:37.411Z,15.75
2023-04-23T20:08:11.297Z,12.43
2023-04-23T20:10:38.866Z,19.13
2023-04-23T20:13:06.235Z,16.17
2023-04-23T20:15:33.625Z,17.30
2023-04-23T20:18:01.186Z,13.68
2023-04-23T20:20:28.610Z,15.68
2023-04-23T20:22:56.073Z,14.77
2023-04-23T20:25:25.582Z,15.40
2023-04-23T20:27:55.670Z,18.55
2023-04-23T20:30:23.214Z,15.20
2023-04-23T20:32:50.702Z,14.63
2023-04-23T20:35:18.210Z,15.07
2023-04-23T20:37:45.936Z,16.48
2023-04-23T20:40:14.644Z,15.48
2023-04-23T20:42:42.433Z,19.05
2023-04-23T20:45:14.730Z,14.77
2023-04-23T20:47:42.151Z,13.93
2023-04-23T20:50:09.874Z,17.55
2023-04-23T20:52:37.309Z,16.00
2023-04-23T20:55:04.946Z,13.30
2023-04-23T20:57:32.607Z,13.68
2023-04-23T20:59:59.981Z,15.07
2023-04-23T21:02:27.523Z,17.10
2023-04-23T21:04:55.156Z,15.15
2023-04-23T21:07:22.536Z,11.18
2023-04-23T21:09:49.910Z,12.85
2023-04-23T21:12:17.380Z,15.73
2023-04-23T21:14:44.880Z,13.82
2023-04-23T21:17:12.343Z,13.80
2023-04-23T21:19:39.971Z,11.10
2023-04-23T21:22:07.724Z,11.18
2023-04-23T21:24:35.090Z,14.35
2023-04-23T21:27:03.817Z,11.65
2023-04-23T21:29:31.904Z,11.50
2023-04-23T21:31:59.355Z,13.27
2023-04-23T21:34:27.462Z,12.60
2023-04-23T21:36:54.953Z,12.25
2023-04-23T21:39:22.389Z,12.63
2023-04-23T21:41:50.211Z,15.40
2023-04-23T21:44:17.634Z,16.77
2023-04-23T21:46:45.911Z,20.42
2023-04-23T21:49:13.398Z,16.05
2023-04-23T21:51:41.153Z,15.27
2023-04-23T21:54:09.232Z,15.25
2023-04-23T21:56:37.208Z,17.80
2023-04-23T21:59:04.744Z,15.55
2023-04-23T22:01:34.264Z,17.42
2023-04-23T22:04:04.624Z,19.50
2023-04-23T22:06:34.548Z,17.20
2023-04-23T22:09:03.173Z,21.58
2023-04-23T22:11:31.427Z,14.73
2023-04-23T22:14:00.256Z,18.77
2023-04-23T22:16:29.154Z,16.88
2023-04-23T22:18:57.675Z,19.73
2023-04-23T22:21:25.373Z,24.15
2023-04-23T22:23:52.910Z,18.08
2023-04-23T22:26:21.150Z,19.83
2023-04-23T22:28:48.550Z,19.75
2023-04-23T22:31:16.093Z,18.08
2023-04-23T22:33:43.546Z,19.08
2023-04-23T22:36:11.435Z,23.23
2023-04-23T22:38:38.854Z,19.75
2023-04-23T22:41:06.850Z,20.23
2023-04-23T22:43:34.208Z,20.13
2023-04-23T22:46:01.747Z,20.33
2023-04-23T22:48:29.269Z,19.23
2023-04-23T22:50:57.573Z,22.40
2023-04-23T22:53:25.271Z,19.00
2023-04-23T22:55:52.849Z,18.70
2023-04-23T22:58:20.601Z,21.48
2023-04-23T23:00:48.002Z,18.90
2023-04-23T23:03:15.848Z,21.10
2023-04-23T23:05:43.433Z,19.48
2023-04-23T23:08:11.656Z,17.38
2023-04-23T23:10:39.136Z,18.63
2023-04-23T23:13:06.502Z,17.58
2023-04-23T23:15:34.117Z,16.88
2023-04-23T23:18:02.059Z,19.95
2023-04-23T23:20:29.554Z,18.42
2023-04-23T23:22:56.965Z,18.00
2023-04-23T23:25:24.387Z,15.63
2023-04-23T23:27:51.809Z,14.23
2023-04-23T23:30:19.258Z,18.02
2023-04-23T23:32:46.678Z,18.25
2023-04-23T23:35:14.122Z,14.25
2023-04-23T23:37:41.484Z,15.93
2023-04-23T23:40:09.954Z,14.88
2023-04-23T23:42:37.312Z,13.82
2023-04-23T23:45:05.184Z,13.57
2023-04-23T23:47:32.613Z,13.25
2023-04-23T23:50:00.004Z,15.98
2023-04-23T23:52:27.479Z,15.50
2023-04-23T23:54:54.914Z,13.00
2023-04-23T23:57:22.298Z,13.10
2023-04-23T23:59:49.679Z,12.57
